Terminal Aerodrome Forecast
Issued by NWS

Home | Current Version | Previous Version | Text Only | Print | Product List | Glossary On
Versions: 1 2 3 4 5 6 7 8 9 10 11 12 13 14 15 16 17 18 19 20 21
540
FTUS41 KBTV 052320
TAFMSS
TAF
KMSS 052320Z 0600/0624 27004KT P6SM FEW250
     FM060500 23004KT P6SM BKN045
     FM061000 22005KT P6SM VCSH OVC025
     FM062000 23015G24KT P6SM OVC045=

USA.gov is the U.S. government's official web portal to all federal, state and local government web resources and services.